Pownal Center, Vermont
Current Conditions -  °F | °C
As of 6:52 PM on Monday 20 Oct 2014 (Local Time) from KAQW Reporting Station
Overcast Overcast  
Wind Chill: 47°   Ceiling: 8000
Heat Index: 49°   Visibility: 10mi
Dew Point: 36°   Wind: 5mph
Humidity: 61%   Direction: 110°ESE
Pressure: 29.95"   Gusts: NA
Location:  42.7845°N, 73.2029°W
Report Text: KAQW 202252Z AUTO 11004KT 10SM OVC080 09/02 A2995 RMK AO2 SLP148 T00940022
Loading
Personal Weather Stations






























Interactive Weather Map
Tropical Storm Tracking
New forecast layout! Learn more

10-Day Weather Forecast

Advertisements
Track Severe Weather on mobile